Time;durP1;ratioP1;P1;durP2;ratioP2;P2;SDS_P1;SDS_P2;PMS_P1;PMS_P2;Temp;Humidity;BMP_temperature;BMP_pressure;BME280_temperature;BME280_humidity;BME280_pressure;Samples;Min_cycle;Max_cycle;Signal;HPM_P1;HPM_P2
2023/12/22 00:01:05;;;;;;;;;;;;;;;;;;6191057;28;19913;-92
2023/12/22 00:04:38;;;;;;;;;;;;;;;;;;6192917;28;20003;-92
2023/12/22 00:07:38;;;;;;;;;;;;;;;;;;6172364;28;19993;-92
2023/12/22 00:10:39;;;;;;;;;;;;;;;;;;6149229;28;20420;-92
2023/12/22 00:14:00;;;;;;;;;;;;;;;;;;6129494;28;19921;-92
2023/12/22 00:20:44;;;;;;;;;;;;;;;;;;6175125;28;19957;-92
2023/12/22 00:24:08;;;;;;;;;;;;;;;;;;6116503;29;19962;-91
2023/12/22 00:27:29;;;;;;;;;;;;;;;;;;6130811;28;19931;-92
2023/12/22 00:30:55;;;;;;;;;;;;;;;;;;6112562;29;20403;-92
2023/12/22 00:34:15;;;;;;;;;;;;;;;;;;6102697;29;19929;-91
2023/12/22 00:37:35;;;;;;;;;;;;;;;;;;6105182;29;19958;-91
2023/12/22 00:40:58;;;;;;;;;;;;;;;;;;6110358;29;20368;-91
2023/12/22 00:44:25;;;;;;;;;;;;;;;;;;6108001;28;19955;-91
2023/12/22 00:47:56;;;;;;;;;;;;;;;;;;6111267;29;20295;-92
2023/12/22 00:51:25;;;;;;;;;;;;;;;;;;6095903;29;20870;-92
2023/12/22 00:54:51;;;;;;;;;;;;;;;;;;6102317;29;20291;-91
2023/12/22 00:58:00;;;;;;;;;;;;;;;;;;6089409;29;19923;-91
2023/12/22 01:01:21;;;;;;;;;;;;;;;;;;6191222;28;20015;-91
2023/12/22 01:04:40;;;;;;;;;;;;;;;;;;6291842;28;20296;-91
2023/12/22 01:08:00;;;;;;;;;;;;;;;;;;6304610;28;19966;-91
2023/12/22 01:11:20;;;;;;;;;;;;;;;;;;6287291;28;19982;-91
2023/12/22 01:14:40;;;;;;;;;;;;;;;;;;6285553;28;19919;-91
2023/12/22 01:17:40;;;;;;;;;;;;;;;;;;6265543;28;20361;-91
2023/12/22 01:20:49;;;;;;;;;;;;;;;;;;6291662;28;19947;-90
2023/12/22 01:23:51;;;;;;;;;;;;;;;;;;6289106;28;20420;-91
2023/12/22 01:27:08;;;;;;;;;;;;;;;;;;6295037;28;19916;-91
2023/12/22 01:30:17;;;;;;;;;;;;;;;;;;6283260;28;19920;-91
2023/12/22 01:33:37;;;;;;;;;;;;;;;;;;6283362;28;20203;-90
2023/12/22 01:36:57;;;;;;;;;;;;;;;;;;6289586;28;20316;-90
2023/12/22 01:40:17;;;;;;;;;;;;;;;;;;6286900;28;20391;-90
2023/12/22 01:43:33;;;;;;;;;;;;;;;;;;6288473;28;19935;-91
2023/12/22 01:46:39;;;;;;;;;;;;;;;;;;6293656;28;20412;-91
2023/12/22 01:49:42;;;;;;;;;;;;;;;;;;6287985;28;19912;-89
2023/12/22 01:52:50;;;;;;;;;;;;;;;;;;6283142;28;19919;-90
2023/12/22 01:56:10;;;;;;;;;;;;;;;;;;6293925;28;19920;-90
2023/12/22 01:59:34;;;;;;;;;;;;;;;;;;6286919;28;20015;-90
2023/12/22 02:02:52;;;;;;;;;;;;;;;;;;6284228;28;19920;-90
2023/12/22 02:06:01;;;;;;;;;;;;;;;;;;6292512;28;19913;-90
2023/12/22 02:09:21;;;;;;;;;;;;;;;;;;6285490;28;19916;-91
2023/12/22 02:12:41;;;;;;;;;;;;;;;;;;6286463;28;20003;-90
2023/12/22 02:16:01;;;;;;;;;;;;;;;;;;6290274;28;20373;-90
2023/12/22 02:19:01;;;;;;;;;;;;;;;;;;6299229;28;19927;-89
2023/12/22 02:22:21;;;;;;;;;;;;;;;;;;6291473;28;19916;-89
2023/12/22 02:25:41;;;;;;;;;;;;;;;;;;6291945;28;19912;-90
2023/12/22 02:28:42;;;;;;;;;;;;;;;;;;6299427;28;19970;-89
2023/12/22 02:31:48;;;;;;;;;;;;;;;;;;6291821;28;19928;-89
2023/12/22 02:34:50;;;;;;;;;;;;;;;;;;6292128;28;19920;-89
2023/12/22 02:38:00;;;;;;;;;;;;;;;;;;6288766;28;19924;-90
2023/12/22 02:41:02;;;;;;;;;;;;;;;;;;6300343;28;19919;-89
2023/12/22 02:44:22;;;;;;;;;;;;;;;;;;6293656;28;20322;-89
2023/12/22 02:47:42;;;;;;;;;;;;;;;;;;6301384;28;20428;-89
2023/12/22 02:51:02;;;;;;;;;;;;;;;;;;6291039;28;19995;-89
2023/12/22 02:54:06;;;;;;;;;;;;;;;;;;6294634;28;19919;-89
2023/12/22 02:57:14;;;;;;;;;;;;;;;;;;6301299;28;19919;-89
2023/12/22 03:00:15;;;;;;;;;;;;;;;;;;6281218;28;19912;-89
2023/12/22 03:03:16;;;;;;;;;;;;;;;;;;6294723;28;19928;-89
2023/12/22 03:06:18;;;;;;;;;;;;;;;;;;6297965;28;19938;-88
2023/12/22 03:09:19;;;;;;;;;;;;;;;;;;6300638;28;19920;-89
2023/12/22 03:12:39;;;;;;;;;;;;;;;;;;6285905;28;19920;-89
2023/12/22 03:16:00;;;;;;;;;;;;;;;;;;6295003;28;20280;-88
2023/12/22 03:19:01;;;;;;;;;;;;;;;;;;6289134;28;19929;-88
2023/12/22 03:22:01;;;;;;;;;;;;;;;;;;6297130;28;19919;-88
2023/12/22 03:25:02;;;;;;;;;;;;;;;;;;6291059;28;19952;-89
2023/12/22 03:28:04;;;;;;;;;;;;;;;;;;6293383;28;19936;-88
2023/12/22 03:31:04;;;;;;;;;;;;;;;;;;6273845;28;20395;-89
2023/12/22 03:34:21;;;;;;;;;;;;;;;;;;6286453;28;19928;-89
2023/12/22 03:37:22;;;;;;;;;;;;;;;;;;6284909;28;19916;-87
2023/12/22 03:40:22;;;;;;;;;;;;;;;;;;6262451;28;19923;-87
2023/12/22 03:43:22;;;;;;;;;;;;;;;;;;6290840;28;19933;-87
2023/12/22 03:46:23;;;;;;;;;;;;;;;;;;6290417;28;19917;-88
2023/12/22 03:49:23;;;;;;;;;;;;;;;;;;6271993;28;20013;-87
2023/12/22 03:52:23;;;;;;;;;;;;;;;;;;6266986;28;19923;-88
2023/12/22 03:55:24;;;;;;;;;;;;;;;;;;6289573;28;20368;-90
2023/12/22 03:58:26;;;;;;;;;;;;;;;;;;6294185;28;19928;-90
2023/12/22 04:01:26;;;;;;;;;;;;;;;;;;6267418;28;19924;-89
2023/12/22 04:04:27;;;;;;;;;;;;;;;;;;6269678;28;19913;-90
2023/12/22 04:07:28;;;;;;;;;;;;;;;;;;6270949;28;19917;-89
2023/12/22 04:10:28;;;;;;;;;;;;;;;;;;6266173;28;19920;-90
2023/12/22 04:13:28;;;;;;;;;;;;;;;;;;6265021;28;19936;-90
2023/12/22 04:16:29;;;;;;;;;;;;;;;;;;6263987;28;19955;-90
2023/12/22 04:19:30;;;;;;;;;;;;;;;;;;6264991;28;19961;-90
2023/12/22 04:22:31;;;;;;;;;;;;;;;;;;6263685;28;19920;-90
2023/12/22 04:25:31;;;;;;;;;;;;;;;;;;6272160;28;19912;-90
2023/12/22 04:28:31;;;;;;;;;;;;;;;;;;6263068;28;19916;-89
2023/12/22 04:31:32;;;;;;;;;;;;;;;;;;6263957;28;19919;-89
2023/12/22 04:34:32;;;;;;;;;;;;;;;;;;6272304;28;19975;-89
2023/12/22 04:37:32;;;;;;;;;;;;;;;;;;6261504;28;19921;-90
2023/12/22 04:40:33;;;;;;;;;;;;;;;;;;6268474;28;19917;-89
2023/12/22 04:43:33;;;;;;;;;;;;;;;;;;6262743;28;19917;-89
2023/12/22 04:46:33;;;;;;;;;;;;;;;;;;6274558;28;19960;-90
2023/12/22 04:49:33;;;;;;;;;;;;;;;;;;6265573;28;19913;-89
2023/12/22 04:52:34;;;;;;;;;;;;;;;;;;6274117;28;19913;-89
2023/12/22 04:55:34;;;;;;;;;;;;;;;;;;6268744;28;19919;-89
2023/12/22 04:58:34;;;;;;;;;;;;;;;;;;6265915;28;19921;-89
2023/12/22 05:01:34;;;;;;;;;;;;;;;;;;6277208;28;19920;-89
2023/12/22 05:04:35;;;;;;;;;;;;;;;;;;6285877;28;19916;-87
2023/12/22 05:07:35;;;;;;;;;;;;;;;;;;6273877;28;19912;-87
2023/12/22 05:10:35;;;;;;;;;;;;;;;;;;6272929;28;19999;-87
2023/12/22 05:13:36;;;;;;;;;;;;;;;;;;6280268;28;19912;-88
2023/12/22 05:16:36;;;;;;;;;;;;;;;;;;6270409;28;20289;-87
2023/12/22 05:19:37;;;;;;;;;;;;;;;;;;6269250;28;19928;-88
2023/12/22 05:22:54;;;;;;;;;;;;;;;;;;6287833;28;20160;-88
2023/12/22 05:25:54;;;;;;;;;;;;;;;;;;6288179;28;19917;-88
2023/12/22 05:28:55;;;;;;;;;;;;;;;;;;6291347;28;19909;-88
2023/12/22 05:31:55;;;;;;;;;;;;;;;;;;6285255;28;20365;-88
2023/12/22 05:34:56;;;;;;;;;;;;;;;;;;6297453;28;19986;-87
2023/12/22 05:37:57;;;;;;;;;;;;;;;;;;6281783;28;19932;-87
2023/12/22 05:40:59;;;;;;;;;;;;;;;;;;6294879;28;19908;-89
2023/12/22 05:44:03;;;;;;;;;;;;;;;;;;6281241;28;21328;-88
2023/12/22 05:47:23;;;;;;;;;;;;;;;;;;6283259;28;20427;-88
2023/12/22 05:50:24;;;;;;;;;;;;;;;;;;6288948;28;19920;-87
2023/12/22 05:53:25;;;;;;;;;;;;;;;;;;6267802;28;19912;-88
2023/12/22 05:56:25;;;;;;;;;;;;;;;;;;6286879;28;20287;-89
2023/12/22 05:59:27;;;;;;;;;;;;;;;;;;6272024;28;19973;-88
2023/12/22 06:02:27;;;;;;;;;;;;;;;;;;6277154;28;19932;-89
2023/12/22 06:05:27;;;;;;;;;;;;;;;;;;6291204;28;19920;-88
2023/12/22 06:08:27;;;;;;;;;;;;;;;;;;6269843;28;19920;-89
2023/12/22 06:11:28;;;;;;;;;;;;;;;;;;6276678;28;19923;-91
2023/12/22 06:14:28;;;;;;;;;;;;;;;;;;6285722;28;19922;-88
2023/12/22 06:17:29;;;;;;;;;;;;;;;;;;6287440;28;19912;-89
2023/12/22 06:20:29;;;;;;;;;;;;;;;;;;6267726;28;19920;-88
2023/12/22 06:23:30;;;;;;;;;;;;;;;;;;6276605;28;19913;-89
2023/12/22 06:26:30;;;;;;;;;;;;;;;;;;6284909;28;19956;-89
2023/12/22 06:29:31;;;;;;;;;;;;;;;;;;6292249;28;19919;-89
2023/12/22 06:32:32;;;;;;;;;;;;;;;;;;6298390;28;20384;-90
2023/12/22 06:35:53;;;;;;;;;;;;;;;;;;6258650;28;19913;-89
2023/12/22 06:39:12;;;;;;;;;;;;;;;;;;6299879;28;20015;-89
2023/12/22 06:42:38;;;;;;;;;;;;;;;;;;6298520;28;19912;-89
2023/12/22 06:46:13;;;;;;;;;;;;;;;;;;6249116;28;19913;-89
2023/12/22 06:49:36;;;;;;;;;;;;;;;;;;6153060;28;20372;-89
2023/12/22 06:53:07;;;;;;;;;;;;;;;;;;6149537;28;19915;-89
2023/12/22 06:56:26;;;;;;;;;;;;;;;;;;6149882;28;20001;-89
2023/12/22 06:59:26;;;;;;;;;;;;;;;;;;6147214;28;19929;-89
2023/12/22 07:02:46;;;;;;;;;;;;;;;;;;6259387;28;19928;-88
2023/12/22 07:06:06;;;;;;;;;;;;;;;;;;6285175;28;19916;-89
2023/12/22 07:09:07;;;;;;;;;;;;;;;;;;6292242;28;20375;-89
2023/12/22 07:12:09;;;;;;;;;;;;;;;;;;6286910;28;19919;-90
2023/12/22 07:15:10;;;;;;;;;;;;;;;;;;6289665;28;19920;-89
2023/12/22 07:18:10;;;;;;;;;;;;;;;;;;6280173;28;19916;-89
2023/12/22 07:21:11;;;;;;;;;;;;;;;;;;6293829;28;20388;-89
2023/12/22 07:24:11;;;;;;;;;;;;;;;;;;6285938;28;20338;-88
2023/12/22 07:27:11;;;;;;;;;;;;;;;;;;6291887;28;19970;-88
2023/12/22 07:30:15;;;;;;;;;;;;;;;;;;6277999;28;19917;-88
2023/12/22 07:33:15;;;;;;;;;;;;;;;;;;6284584;28;19918;-88
2023/12/22 07:36:15;;;;;;;;;;;;;;;;;;6286263;28;19921;-88
2023/12/22 07:39:18;;;;;;;;;;;;;;;;;;6293901;28;19933;-89
2023/12/22 07:42:19;;;;;;;;;;;;;;;;;;6274310;28;20003;-86
2023/12/22 07:45:19;;;;;;;;;;;;;;;;;;6286232;28;20342;-86
2023/12/22 07:48:20;;;;;;;;;;;;;;;;;;6290898;28;20349;-88
2023/12/22 07:51:20;;;;;;;;;;;;;;;;;;6293814;28;20347;-88
2023/12/22 07:54:20;;;;;;;;;;;;;;;;;;6288090;28;19913;-88
2023/12/22 07:57:20;;;;;;;;;;;;;;;;;;6278385;28;19913;-87
2023/12/22 08:00:20;;;;;;;;;;;;;;;;;;6282152;28;20273;-88
2023/12/22 08:03:20;;;;;;;;;;;;;;;;;;6254178;28;19928;-88
2023/12/22 08:06:21;;;;;;;;;;;;;;;;;;6252448;28;20005;-88
2023/12/22 08:09:22;;;;;;;;;;;;;;;;;;6275637;28;19921;-89
2023/12/22 08:12:22;;;;;;;;;;;;;;;;;;6242942;28;20769;-88
2023/12/22 08:15:22;;;;;;;;;;;;;;;;;;6263793;28;19913;-89
2023/12/22 08:18:23;;;;;;;;;;;;;;;;;;6260767;28;19916;-89
2023/12/22 08:21:23;;;;;;;;;;;;;;;;;;6262614;28;20008;-88
2023/12/22 08:24:32;;;;;;;;;;;;;;;;;;6276244;28;19917;-88
2023/12/22 08:27:32;;;;;;;;;;;;;;;;;;6267990;28;19913;-89
2023/12/22 08:30:33;;;;;;;;;;;;;;;;;;6268058;28;19920;-89
2023/12/22 08:33:33;;;;;;;;;;;;;;;;;;6266371;28;19923;-88
2023/12/22 08:36:33;;;;;;;;;;;;;;;;;;6246472;28;20504;-89
2023/12/22 08:39:33;;;;;;;;;;;;;;;;;;6261263;28;20263;-90
2023/12/22 08:42:34;;;;;;;;;;;;;;;;;;6255858;28;20007;-89
2023/12/22 08:45:34;;;;;;;;;;;;;;;;;;6258310;28;19996;-88
2023/12/22 08:48:34;;;;;;;;;;;;;;;;;;6272721;28;20011;-89
2023/12/22 08:51:34;;;;;;;;;;;;;;;;;;6261433;28;20020;-91
2023/12/22 08:54:35;;;;;;;;;;;;;;;;;;6258971;28;19913;-90
2023/12/22 08:57:35;;;;;;;;;;;;;;;;;;6245098;28;19913;-90
2023/12/22 09:00:35;;;;;;;;;;;;;;;;;;6259721;28;19917;-91
2023/12/22 09:03:35;;;;;;;;;;;;;;;;;;6290158;28;19916;-90
2023/12/22 09:06:35;;;;;;;;;;;;;;;;;;6269857;28;19913;-90
2023/12/22 09:09:36;;;;;;;;;;;;;;;;;;6278628;28;19957;-90
2023/12/22 09:12:36;;;;;;;;;;;;;;;;;;6291744;28;19948;-90
2023/12/22 09:15:36;;;;;;;;;;;;;;;;;;6281795;28;19913;-90
2023/12/22 09:18:36;;;;;;;;;;;;;;;;;;6310808;28;19923;-89
2023/12/22 09:21:36;;;;;;;;;;;;;;;;;;6280818;28;19920;-90
2023/12/22 09:24:36;;;;;;;;;;;;;;;;;;6285196;28;19913;-91
2023/12/22 09:27:36;;;;;;;;;;;;;;;;;;6271352;28;19913;-91
2023/12/22 09:30:37;;;;;;;;;;;;;;;;;;6289364;28;19928;-91
2023/12/22 09:33:37;;;;;;;;;;;;;;;;;;6309483;28;19916;-88
2023/12/22 09:36:37;;;;;;;;;;;;;;;;;;6303915;28;19920;-88
2023/12/22 09:39:37;;;;;;;;;;;;;;;;;;6290939;28;19916;-88
2023/12/22 09:42:37;;;;;;;;;;;;;;;;;;6278166;28;19983;-89
2023/12/22 09:45:37;;;;;;;;;;;;;;;;;;6289288;28;20372;-90
2023/12/22 09:48:39;;;;;;;;;;;;;;;;;;6274275;28;20164;-89
2023/12/22 09:51:39;;;;;;;;;;;;;;;;;;6290410;28;19917;-90
2023/12/22 09:54:40;;;;;;;;;;;;;;;;;;6293402;28;19943;-89
2023/12/22 09:57:40;;;;;;;;;;;;;;;;;;6272379;28;19966;-88
2023/12/22 10:00:40;;;;;;;;;;;;;;;;;;6281979;28;20279;-88
2023/12/22 10:03:40;;;;;;;;;;;;;;;;;;6285377;28;19916;-89
2023/12/22 10:06:40;;;;;;;;;;;;;;;;;;6268442;28;19913;-88
2023/12/22 10:09:40;;;;;;;;;;;;;;;;;;6280843;28;20006;-89
2023/12/22 10:12:41;;;;;;;;;;;;;;;;;;6299189;28;19924;-89
2023/12/22 10:15:44;;;;;;;;;;;;;;;;;;6271430;28;19912;-89
2023/12/22 10:18:44;;;;;;;;;;;;;;;;;;6274385;28;19956;-89
2023/12/22 10:21:44;;;;;;;;;;;;;;;;;;6280997;28;19917;-89
2023/12/22 10:24:47;;;;;;;;;;;;;;;;;;6296336;28;19951;-88
2023/12/22 10:27:47;;;;;;;;;;;;;;;;;;6290309;28;20387;-89
2023/12/22 10:30:47;;;;;;;;;;;;;;;;;;6267019;28;19913;-89
2023/12/22 10:33:48;;;;;;;;;;;;;;;;;;6283934;28;19917;-89
2023/12/22 10:36:48;;;;;;;;;;;;;;;;;;6287071;28;20380;-89
2023/12/22 10:39:49;;;;;;;;;;;;;;;;;;6285041;28;20285;-89
2023/12/22 10:42:49;;;;;;;;;;;;;;;;;;6269156;28;19913;-89
2023/12/22 10:45:49;;;;;;;;;;;;;;;;;;6290721;28;20006;-89
2023/12/22 10:48:49;;;;;;;;;;;;;;;;;;6289844;28;19917;-89
2023/12/22 10:51:49;;;;;;;;;;;;;;;;;;6279570;28;19909;-88
2023/12/22 10:54:49;;;;;;;;;;;;;;;;;;6277757;28;19919;-89
2023/12/22 10:57:49;;;;;;;;;;;;;;;;;;6278027;28;20381;-89
2023/12/22 11:00:50;;;;;;;;;;;;;;;;;;6289803;28;19994;-89
2023/12/22 11:03:50;;;;;;;;;;;;;;;;;;6265603;28;19964;-89
2023/12/22 11:06:50;;;;;;;;;;;;;;;;;;6246121;28;19961;-89
2023/12/22 11:09:50;;;;;;;;;;;;;;;;;;6250831;28;19913;-88
2023/12/22 11:12:50;;;;;;;;;;;;;;;;;;6270377;28;19941;-89
2023/12/22 11:15:50;;;;;;;;;;;;;;;;;;6242092;28;19909;-89
2023/12/22 11:18:52;;;;;;;;;;;;;;;;;;6263285;28;19921;-89
2023/12/22 11:21:52;;;;;;;;;;;;;;;;;;6265675;28;19951;-89
2023/12/22 11:24:52;;;;;;;;;;;;;;;;;;6260637;28;19909;-89
2023/12/22 11:27:53;;;;;;;;;;;;;;;;;;6258537;28;19912;-88
2023/12/22 11:30:53;;;;;;;;;;;;;;;;;;6241549;28;20032;-88
2023/12/22 11:33:53;;;;;;;;;;;;;;;;;;6264578;28;19913;-87
2023/12/22 11:36:54;;;;;;;;;;;;;;;;;;6264535;28;19924;-88
2023/12/22 11:39:55;;;;;;;;;;;;;;;;;;6253850;28;19920;-88
2023/12/22 11:42:55;;;;;;;;;;;;;;;;;;6260689;28;20302;-88
2023/12/22 11:45:56;;;;;;;;;;;;;;;;;;6242821;28;19913;-88
2023/12/22 11:48:56;;;;;;;;;;;;;;;;;;6264579;28;19966;-87
2023/12/22 11:51:56;;;;;;;;;;;;;;;;;;6248615;28;19913;-88
2023/12/22 11:54:56;;;;;;;;;;;;;;;;;;6264817;28;19955;-87
2023/12/22 11:57:59;;;;;;;;;;;;;;;;;;6269694;28;19921;-87
2023/12/22 12:00:59;;;;;;;;;;;;;;;;;;6255229;28;19920;-88
2023/12/22 12:04:01;;;;;;;;;;;;;;;;;;6262869;28;19935;-88
2023/12/22 12:07:02;;;;;;;;;;;;;;;;;;6258871;28;19967;-88
2023/12/22 12:10:02;;;;;;;;;;;;;;;;;;6267114;28;19919;-88
2023/12/22 12:13:02;;;;;;;;;;;;;;;;;;6246919;28;19916;-90
2023/12/22 12:16:02;;;;;;;;;;;;;;;;;;6266091;28;19913;-89
2023/12/22 12:19:03;;;;;;;;;;;;;;;;;;6251716;28;20028;-92
2023/12/22 12:22:03;;;;;;;;;;;;;;;;;;6252818;28;19996;-90
2023/12/22 12:25:04;;;;;;;;;;;;;;;;;;6242634;28;20293;-89
2023/12/22 12:28:04;;;;;;;;;;;;;;;;;;6266731;28;19935;-89
2023/12/22 12:31:04;;;;;;;;;;;;;;;;;;6260192;28;19912;-88
2023/12/22 12:34:04;;;;;;;;;;;;;;;;;;6262946;28;19966;-89
2023/12/22 12:37:04;;;;;;;;;;;;;;;;;;6268707;28;19913;-89
2023/12/22 12:40:04;;;;;;;;;;;;;;;;;;6252455;28;19921;-89
2023/12/22 12:43:05;;;;;;;;;;;;;;;;;;6250304;28;19913;-88
2023/12/22 12:46:05;;;;;;;;;;;;;;;;;;6261421;28;20046;-89
2023/12/22 12:49:05;;;;;;;;;;;;;;;;;;6253906;28;19938;-89
2023/12/22 12:52:06;;;;;;;;;;;;;;;;;;6246286;28;19919;-89
2023/12/22 12:55:06;;;;;;;;;;;;;;;;;;6247527;28;19913;-88
2023/12/22 12:58:06;;;;;;;;;;;;;;;;;;6262095;28;20333;-87
2023/12/22 13:01:06;;;;;;;;;;;;;;;;;;6238014;28;19924;-89
2023/12/22 13:04:06;;;;;;;;;;;;;;;;;;6277642;28;19924;-88
2023/12/22 13:07:06;;;;;;;;;;;;;;;;;;6282577;28;19920;-88
2023/12/22 13:10:07;;;;;;;;;;;;;;;;;;6285062;28;20047;-88
2023/12/22 13:13:07;;;;;;;;;;;;;;;;;;6285764;28;19921;-89
2023/12/22 13:16:07;;;;;;;;;;;;;;;;;;6284065;28;19919;-87
2023/12/22 13:19:07;;;;;;;;;;;;;;;;;;6285353;28;19921;-89
2023/12/22 13:22:07;;;;;;;;;;;;;;;;;;6286487;28;19939;-88
2023/12/22 13:25:08;;;;;;;;;;;;;;;;;;6285601;28;20007;-86
2023/12/22 13:28:08;;;;;;;;;;;;;;;;;;6272139;28;20041;-85
2023/12/22 13:31:08;;;;;;;;;;;;;;;;;;6275135;28;20011;-84
2023/12/22 13:34:08;;;;;;;;;;;;;;;;;;6278132;28;19948;-81
2023/12/22 13:37:08;;;;;;;;;;;;;;;;;;6278620;28;19917;-80
2023/12/22 13:40:09;;;;;;;;;;;;;;;;;;6276350;28;19924;-80
2023/12/22 13:43:09;;;;;;;;;;;;;;;;;;6281732;28;19965;-82
2023/12/22 13:46:09;;;;;;;;;;;;;;;;;;6288181;28;20284;-84
2023/12/22 13:49:12;;;;;;;;;;;;;;;;;;6291421;28;19973;-83
2023/12/22 13:52:12;;;;;;;;;;;;;;;;;;6277717;28;19947;-84
2023/12/22 13:55:12;;;;;;;;;;;;;;;;;;6287287;28;19912;-87
2023/12/22 13:58:13;;;;;;;;;;;;;;;;;;6284523;28;20019;-88
2023/12/22 14:01:15;;;;;;;;;;;;;;;;;;6285636;28;20280;-88
2023/12/22 14:04:15;;;;;;;;;;;;;;;;;;6267703;28;19913;-87
2023/12/22 14:07:15;;;;;;;;;;;;;;;;;;6286232;28;19912;-87
2023/12/22 14:10:15;;;;;;;;;;;;;;;;;;6280689;28;19913;-88
2023/12/22 14:13:15;;;;;;;;;;;;;;;;;;6275225;28;20297;-87
2023/12/22 14:16:15;;;;;;;;;;;;;;;;;;6270234;28;19919;-87
2023/12/22 14:19:15;;;;;;;;;;;;;;;;;;6278768;28;20007;-89
2023/12/22 14:22:16;;;;;;;;;;;;;;;;;;6265026;28;19983;-92
2023/12/22 14:25:17;;;;;;;;;;;;;;;;;;6293626;28;20277;-89
2023/12/22 14:28:17;;;;;;;;;;;;;;;;;;6298994;28;19913;-84
2023/12/22 14:31:17;;;;;;;;;;;;;;;;;;6295578;28;20007;-86
2023/12/22 14:34:17;;;;;;;;;;;;;;;;;;6284224;28;20273;-87
2023/12/22 14:37:17;;;;;;;;;;;;;;;;;;6274672;28;20280;-85
2023/12/22 14:40:17;;;;;;;;;;;;;;;;;;6296713;28;19920;-86
2023/12/22 14:43:18;;;;;;;;;;;;;;;;;;6275134;28;19923;-84
2023/12/22 14:46:18;;;;;;;;;;;;;;;;;;6265748;28;19948;-86
2023/12/22 14:49:19;;;;;;;;;;;;;;;;;;6286834;28;19959;-83
2023/12/22 14:52:20;;;;;;;;;;;;;;;;;;6294106;28;19912;-83
2023/12/22 14:55:20;;;;;;;;;;;;;;;;;;6282147;28;19913;-84
2023/12/22 14:58:21;;;;;;;;;;;;;;;;;;6288562;28;19962;-83
2023/12/22 15:01:21;;;;;;;;;;;;;;;;;;6286251;28;20039;-84
2023/12/22 15:04:22;;;;;;;;;;;;;;;;;;6290579;28;19947;-85
2023/12/22 15:07:22;;;;;;;;;;;;;;;;;;6277623;28;20351;-81
2023/12/22 15:10:22;;;;;;;;;;;;;;;;;;6287780;28;20003;-81
2023/12/22 15:13:22;;;;;;;;;;;;;;;;;;6303606;28;20007;-81
2023/12/22 15:16:22;;;;;;;;;;;;;;;;;;6292143;28;20011;-83
2023/12/22 15:19:22;;;;;;;;;;;;;;;;;;6288678;28;20015;-87
2023/12/22 15:22:23;;;;;;;;;;;;;;;;;;6282500;28;20004;-81
2023/12/22 15:25:23;;;;;;;;;;;;;;;;;;6283401;28;19991;-83
2023/12/22 15:28:23;;;;;;;;;;;;;;;;;;6287849;28;19917;-83
2023/12/22 15:31:24;;;;;;;;;;;;;;;;;;6290619;28;20265;-83
2023/12/22 15:34:24;;;;;;;;;;;;;;;;;;6282780;28;19913;-83
2023/12/22 15:37:24;;;;;;;;;;;;;;;;;;6295323;28;19958;-84
2023/12/22 15:40:25;;;;;;;;;;;;;;;;;;6286883;28;19925;-83
2023/12/22 15:43:25;;;;;;;;;;;;;;;;;;6291963;28;19921;-81
2023/12/22 15:46:25;;;;;;;;;;;;;;;;;;6286037;28;19913;-82
2023/12/22 15:49:26;;;;;;;;;;;;;;;;;;6285896;28;20317;-81
2023/12/22 15:52:26;;;;;;;;;;;;;;;;;;6264678;28;20276;-81
2023/12/22 15:55:26;;;;;;;;;;;;;;;;;;6271939;28;19989;-81
2023/12/22 15:58:26;;;;;;;;;;;;;;;;;;6295969;28;20028;-81
2023/12/22 16:01:27;;;;;;;;;;;;;;;;;;6291247;28;19920;-81
2023/12/22 16:04:28;;;;;;;;;;;;;;;;;;6287744;28;19920;-82
2023/12/22 16:07:28;;;;;;;;;;;;;;;;;;6290611;28;19966;-82
2023/12/22 16:10:28;;;;;;;;;;;;;;;;;;6300863;28;19912;-81
2023/12/22 16:13:31;;;;;;;;;;;;;;;;;;6290026;28;19925;-82
2023/12/22 16:16:32;;;;;;;;;;;;;;;;;;6287059;28;19996;-81
2023/12/22 16:19:32;;;;;;;;;;;;;;;;;;6291079;28;19921;-82
2023/12/22 16:22:33;;;;;;;;;;;;;;;;;;6280347;28;19911;-81
2023/12/22 16:25:33;;;;;;;;;;;;;;;;;;6289321;28;19919;-82
2023/12/22 16:28:33;;;;;;;;;;;;;;;;;;6288458;28;19956;-84
2023/12/22 16:31:33;;;;;;;;;;;;;;;;;;6275951;28;19962;-82
2023/12/22 16:34:34;;;;;;;;;;;;;;;;;;6283479;28;20277;-85
2023/12/22 16:37:34;;;;;;;;;;;;;;;;;;6271742;28;20407;-86
2023/12/22 16:40:34;;;;;;;;;;;;;;;;;;6293923;28;20409;-85
2023/12/22 16:43:35;;;;;;;;;;;;;;;;;;6299371;28;19999;-84
2023/12/22 16:46:35;;;;;;;;;;;;;;;;;;6286791;28;19913;-84
2023/12/22 16:49:35;;;;;;;;;;;;;;;;;;6289195;28;19923;-85
2023/12/22 16:52:35;;;;;;;;;;;;;;;;;;6268292;28;20313;-85
2023/12/22 16:55:35;;;;;;;;;;;;;;;;;;6281150;28;19920;-84
2023/12/22 16:58:36;;;;;;;;;;;;;;;;;;6286226;28;19927;-86
2023/12/22 17:01:36;;;;;;;;;;;;;;;;;;6265090;28;20292;-85
2023/12/22 17:04:36;;;;;;;;;;;;;;;;;;6269792;28;19917;-83
2023/12/22 17:07:37;;;;;;;;;;;;;;;;;;6268964;28;19920;-83
2023/12/22 17:10:37;;;;;;;;;;;;;;;;;;6271788;28;19966;-85
2023/12/22 17:13:38;;;;;;;;;;;;;;;;;;6267521;28;19912;-83
2023/12/22 17:16:38;;;;;;;;;;;;;;;;;;6271670;28;19913;-84
2023/12/22 17:19:38;;;;;;;;;;;;;;;;;;6270061;28;19921;-84
2023/12/22 17:22:38;;;;;;;;;;;;;;;;;;6271630;28;19914;-85
2023/12/22 17:25:41;;;;;;;;;;;;;;;;;;6259287;28;19967;-85
2023/12/22 17:28:48;;;;;;;;;;;;;;;;;;6266683;28;19917;-87
2023/12/22 17:31:51;;;;;;;;;;;;;;;;;;6262006;28;19967;-87
2023/12/22 17:34:52;;;;;;;;;;;;;;;;;;6248159;28;20400;-78
2023/12/22 17:37:52;;;;;;;;;;;;;;;;;;6265141;28;19917;-84
2023/12/22 17:40:52;;;;;;;;;;;;;;;;;;6263257;28;19913;-83
2023/12/22 17:43:52;;;;;;;;;;;;;;;;;;6264806;28;19967;-84
2023/12/22 17:46:53;;;;;;;;;;;;;;;;;;6268116;28;19912;-85
2023/12/22 17:49:53;;;;;;;;;;;;;;;;;;6270796;28;19959;-85
2023/12/22 17:52:54;;;;;;;;;;;;;;;;;;6270910;28;19962;-84
2023/12/22 17:55:54;;;;;;;;;;;;;;;;;;6260361;28;19913;-85
2023/12/22 17:58:54;;;;;;;;;;;;;;;;;;6268171;28;19928;-88
2023/12/22 18:01:57;;;;;;;;;;;;;;;;;;6256423;28;19956;-79
2023/12/22 18:04:57;;;;;;;;;;;;;;;;;;6267562;28;20362;-80
2023/12/22 18:07:57;;;;;;;;;;;;;;;;;;6274573;28;20070;-87
2023/12/22 18:10:57;;;;;;;;;;;;;;;;;;6257713;28;20353;-86
2023/12/22 18:13:57;;;;;;;;;;;;;;;;;;6260277;28;20392;-86
2023/12/22 18:16:57;;;;;;;;;;;;;;;;;;6271424;28;19920;-87
2023/12/22 18:19:57;;;;;;;;;;;;;;;;;;6277910;28;20334;-85
2023/12/22 18:22:58;;;;;;;;;;;;;;;;;;6272087;28;19913;-87
2023/12/22 18:25:59;;;;;;;;;;;;;;;;;;6264193;28;20409;-85
2023/12/22 18:28:59;;;;;;;;;;;;;;;;;;6271310;28;20434;-87
2023/12/22 18:31:59;;;;;;;;;;;;;;;;;;6271778;28;20011;-84
2023/12/22 18:34:59;;;;;;;;;;;;;;;;;;6265826;28;20016;-85
2023/12/22 18:38:00;;;;;;;;;;;;;;;;;;6271419;28;20008;-84
2023/12/22 18:41:00;;;;;;;;;;;;;;;;;;6277662;28;19920;-87
2023/12/22 18:44:00;;;;;;;;;;;;;;;;;;6269465;28;20394;-87
2023/12/22 18:47:00;;;;;;;;;;;;;;;;;;6272084;28;20028;-87
2023/12/22 18:50:01;;;;;;;;;;;;;;;;;;6274360;28;19913;-88
2023/12/22 18:53:02;;;;;;;;;;;;;;;;;;6268009;28;19919;-86
2023/12/22 18:56:02;;;;;;;;;;;;;;;;;;6275135;28;19913;-88
2023/12/22 18:59:03;;;;;;;;;;;;;;;;;;6259434;28;20020;-89
2023/12/22 19:02:03;;;;;;;;;;;;;;;;;;6267097;28;19970;-88
2023/12/22 19:05:03;;;;;;;;;;;;;;;;;;6274160;28;19920;-87
2023/12/22 19:08:03;;;;;;;;;;;;;;;;;;6290730;28;20499;-89
2023/12/22 19:11:03;;;;;;;;;;;;;;;;;;6273387;28;19916;-88
2023/12/22 19:14:03;;;;;;;;;;;;;;;;;;6278457;28;19928;-87
2023/12/22 19:17:04;;;;;;;;;;;;;;;;;;6272383;28;19912;-89
2023/12/22 19:20:04;;;;;;;;;;;;;;;;;;6290490;28;19925;-86
2023/12/22 19:23:04;;;;;;;;;;;;;;;;;;6285150;28;20280;-87
2023/12/22 19:26:04;;;;;;;;;;;;;;;;;;6287205;28;19927;-87
2023/12/22 19:29:05;;;;;;;;;;;;;;;;;;6269044;28;19958;-86
2023/12/22 19:32:05;;;;;;;;;;;;;;;;;;6292398;28;19913;-86
2023/12/22 19:35:05;;;;;;;;;;;;;;;;;;6272255;28;19946;-86
2023/12/22 19:38:08;;;;;;;;;;;;;;;;;;6291120;28;19916;-87
2023/12/22 19:41:08;;;;;;;;;;;;;;;;;;6274051;28;19917;-86
2023/12/22 19:44:08;;;;;;;;;;;;;;;;;;6293783;28;20262;-86
2023/12/22 19:47:08;;;;;;;;;;;;;;;;;;6301126;28;19919;-86
2023/12/22 19:50:12;;;;;;;;;;;;;;;;;;6282803;28;19916;-86
2023/12/22 19:53:12;;;;;;;;;;;;;;;;;;6300986;28;19912;-87
2023/12/22 19:56:12;;;;;;;;;;;;;;;;;;6299976;28;19913;-88
2023/12/22 19:59:12;;;;;;;;;;;;;;;;;;6300822;28;19921;-88
2023/12/22 20:02:12;;;;;;;;;;;;;;;;;;6300314;28;19920;-89
2023/12/22 20:05:12;;;;;;;;;;;;;;;;;;6297175;28;19995;-87
2023/12/22 20:08:12;;;;;;;;;;;;;;;;;;6282734;28;20010;-87
2023/12/22 20:11:13;;;;;;;;;;;;;;;;;;6282447;28;19912;-87
2023/12/22 20:14:13;;;;;;;;;;;;;;;;;;6285762;28;19919;-87
2023/12/22 20:17:13;;;;;;;;;;;;;;;;;;6278008;28;19912;-87
2023/12/22 20:20:13;;;;;;;;;;;;;;;;;;6299610;28;20015;-86
2023/12/22 20:23:13;;;;;;;;;;;;;;;;;;6279954;28;20015;-89
2023/12/22 20:26:13;;;;;;;;;;;;;;;;;;6280553;28;20273;-85
2023/12/22 20:29:13;;;;;;;;;;;;;;;;;;6275936;28;20445;-87
2023/12/22 20:32:14;;;;;;;;;;;;;;;;;;6288038;28;19966;-87
2023/12/22 20:35:14;;;;;;;;;;;;;;;;;;6297928;28;20094;-87
2023/12/22 20:38:14;;;;;;;;;;;;;;;;;;6275891;28;20391;-87
2023/12/22 20:41:14;;;;;;;;;;;;;;;;;;6300257;28;19912;-87
2023/12/22 20:44:15;;;;;;;;;;;;;;;;;;6281720;28;19920;-87
2023/12/22 20:47:15;;;;;;;;;;;;;;;;;;6279468;28;19913;-87
2023/12/22 20:50:16;;;;;;;;;;;;;;;;;;6276061;28;19913;-87
2023/12/22 20:53:16;;;;;;;;;;;;;;;;;;6278114;28;19999;-88